Terminal Aerodrome Forecast
Issued by NWS

Home | Current Version | Previous Version | Text Only | Print | Product List | Glossary On
Versions: 1 2 3 4 5 6 7 8 9 10 11 12 13 14 15 16
706
FTUS43 KAPX 231720
TAFMBL
TAF
KMBL 231720Z 2318/2418 16010G18KT P6SM BKN080
     FM240000 15008KT P6SM OVC050
     FM240300 16010G18KT 5SM -RA OVC035 WS020/22035KT
     FM241200 20005KT 3SM -RA BR OVC008=

USA.gov is the U.S. government's official web portal to all federal, state and local government web resources and services.